Pagrindinis puslapis
METAR-TAF:

METAR-TAF

Oro uostai :

Childress, Teksasas, Jungtinės Amerikos Valstijos

platuma: 34-25-39N, ilguma: 100-17-00W, Aukštis: 595 m

Dabartinis oras

Ataskaita buvo paskelbta 19 minutes, ne 10:53 UTC
Vėjas 12 kt iš Šiaurės Vakarų
Temperatūra 10°C
Drėgmė 37%
Slėgis 1014 hPa
Matomumas: 16.1 km
Giedras dangus

METAR: KCDS 281053Z AUTO 31012KT 10SM CLR 10/M04 A2993 RMK AO2 SLP122 T01001039

Laikas: 06:12 (11:12 UTC)

Prognozė

Ataskaita buvo paskelbta 5 valandos ir 36 minutes, ne 05:36 UTC
Prognozė galioja nuo 28 metu 06 UTC su 29 metu 06 UTC
Vėjas 15 kt iš Šiaurės Vakarų
Matomumas: 10 km
Giedras dangus
Nuo 28 metu 1500 UTC
Vėjas 23 kt iš Šiaurės/Šiaurės Vakarų su gūsio iki 34 kt
Matomumas: 9.7 km
Giedras dangus
Dulkes pustymas
Nuo 29 metu 0000 UTC
Vėjas 19 kt iš Šiaurės/Šiaurės Vakarų
Matomumas: 10 km
Giedras dangus

TAF: KCDS 280536Z 2806/2906 32015KT P6SM SKC WS010/34045KT FM281500 33023G34KT 6SM BLDU SKC FM290000 34019KT P6SM SKC

Orai ataskaitas ir orų prognozės (METAR, TAF).

turimą stotys yra geltonos ir raudonos taškus žemėlapyje.

Perkelti pele per norėdami pamatyti stoties vardą.

Tada spustelėkite, norėdami matyti oro stebėjimo ir prognozės.

Norėdami pakeisti žemėlapį: spustelėkite ant žalios mygtukų su juodo kryžiaus žemyn,; žalią mygtuką su brūkšneliu, jei norite nutolinti; arba žalių rodyklių gretimoms žemėlapius.


METAR-TAF: